sensor_id;sensor_type;location;lat;lon;timestamp;P1;durP1;ratioP1;P2;durP2;ratioP2
8825;SDS011;4449;50.872;4.714;2022-07-29T00:02:11;1.98;;;1.67;;
8825;SDS011;4449;50.872;4.714;2022-07-29T00:04:39;2.35;;;1.70;;
8825;SDS011;4449;50.872;4.714;2022-07-29T00:07:07;4.22;;;1.90;;
8825;SDS011;4449;50.872;4.714;2022-07-29T00:09:36;3.40;;;2.05;;
8825;SDS011;4449;50.872;4.714;2022-07-29T00:12:04;2.50;;;1.88;;
8825;SDS011;4449;50.872;4.714;2022-07-29T00:14:32;2.10;;;2.00;;
8825;SDS011;4449;50.872;4.714;2022-07-29T00:17:02;3.50;;;1.80;;
8825;SDS011;4449;50.872;4.714;2022-07-29T00:19:29;2.15;;;1.95;;
8825;SDS011;4449;50.872;4.714;2022-07-29T00:21:57;3.70;;;2.00;;
8825;SDS011;4449;50.872;4.714;2022-07-29T00:24:25;2.20;;;1.90;;
8825;SDS011;4449;50.872;4.714;2022-07-29T00:26:54;3.10;;;1.85;;
8825;SDS011;4449;50.872;4.714;2022-07-29T00:29:22;2.97;;;1.80;;
8825;SDS011;4449;50.872;4.714;2022-07-29T00:31:50;3.75;;;2.20;;
8825;SDS011;4449;50.872;4.714;2022-07-29T00:34:17;2.87;;;1.80;;
8825;SDS011;4449;50.872;4.714;2022-07-29T00:37:03;2.60;;;1.95;;
8825;SDS011;4449;50.872;4.714;2022-07-29T00:39:30;3.60;;;1.83;;
8825;SDS011;4449;50.872;4.714;2022-07-29T00:42:00;2.30;;;2.20;;
8825;SDS011;4449;50.872;4.714;2022-07-29T00:44:29;2.70;;;2.03;;
8825;SDS011;4449;50.872;4.714;2022-07-29T00:46:56;3.63;;;2.08;;
8825;SDS011;4449;50.872;4.714;2022-07-29T00:49:24;2.42;;;2.20;;
8825;SDS011;4449;50.872;4.714;2022-07-29T00:51:52;3.33;;;2.38;;
8825;SDS011;4449;50.872;4.714;2022-07-29T00:54:20;2.03;;;1.93;;
8825;SDS011;4449;50.872;4.714;2022-07-29T00:56:48;2.13;;;1.93;;
8825;SDS011;4449;50.872;4.714;2022-07-29T00:59:18;3.15;;;1.98;;
8825;SDS011;4449;50.872;4.714;2022-07-29T01:01:45;2.33;;;2.08;;
8825;SDS011;4449;50.872;4.714;2022-07-29T01:04:13;2.30;;;2.10;;
8825;SDS011;4449;50.872;4.714;2022-07-29T01:06:41;2.35;;;2.13;;
8825;SDS011;4449;50.872;4.714;2022-07-29T01:09:09;2.58;;;2.10;;
8825;SDS011;4449;50.872;4.714;2022-07-29T01:11:37;2.53;;;2.28;;
8825;SDS011;4449;50.872;4.714;2022-07-29T01:14:06;2.47;;;2.00;;
8825;SDS011;4449;50.872;4.714;2022-07-29T01:16:37;2.40;;;2.20;;
8825;SDS011;4449;50.872;4.714;2022-07-29T01:19:07;3.72;;;2.30;;
8825;SDS011;4449;50.872;4.714;2022-07-29T01:21:46;3.33;;;2.00;;
8825;SDS011;4449;50.872;4.714;2022-07-29T01:24:30;2.30;;;2.10;;
8825;SDS011;4449;50.872;4.714;2022-07-29T01:27:03;5.30;;;2.40;;
8825;SDS011;4449;50.872;4.714;2022-07-29T01:29:36;2.30;;;2.10;;
8825;SDS011;4449;50.872;4.714;2022-07-29T01:32:07;2.20;;;2.10;;
8825;SDS011;4449;50.872;4.714;2022-07-29T01:34:37;2.97;;;2.08;;
8825;SDS011;4449;50.872;4.714;2022-07-29T01:37:15;3.72;;;2.05;;
8825;SDS011;4449;50.872;4.714;2022-07-29T01:39:45;2.40;;;2.25;;
8825;SDS011;4449;50.872;4.714;2022-07-29T01:42:15;3.30;;;2.27;;
8825;SDS011;4449;50.872;4.714;2022-07-29T01:44:50;3.08;;;2.47;;
8825;SDS011;4449;50.872;4.714;2022-07-29T01:47:21;3.67;;;3.13;;
8825;SDS011;4449;50.872;4.714;2022-07-29T01:49:51;3.25;;;2.60;;
8825;SDS011;4449;50.872;4.714;2022-07-29T01:52:21;2.38;;;2.17;;
8825;SDS011;4449;50.872;4.714;2022-07-29T01:54:52;2.00;;;1.90;;
8825;SDS011;4449;50.872;4.714;2022-07-29T01:57:23;2.67;;;2.17;;
8825;SDS011;4449;50.872;4.714;2022-07-29T01:59:54;2.80;;;2.10;;
8825;SDS011;4449;50.872;4.714;2022-07-29T02:02:22;1.77;;;1.65;;
8825;SDS011;4449;50.872;4.714;2022-07-29T02:04:50;4.72;;;2.20;;
8825;SDS011;4449;50.872;4.714;2022-07-29T02:07:20;1.90;;;1.80;;
8825;SDS011;4449;50.872;4.714;2022-07-29T02:09:49;2.08;;;1.90;;
8825;SDS011;4449;50.872;4.714;2022-07-29T02:12:18;2.05;;;1.90;;
8825;SDS011;4449;50.872;4.714;2022-07-29T02:14:47;4.50;;;1.90;;
8825;SDS011;4449;50.872;4.714;2022-07-29T02:17:18;2.90;;;2.03;;
8825;SDS011;4449;50.872;4.714;2022-07-29T02:19:48;3.90;;;2.10;;
8825;SDS011;4449;50.872;4.714;2022-07-29T02:22:16;8.27;;;2.20;;
8825;SDS011;4449;50.872;4.714;2022-07-29T02:24:45;5.15;;;2.25;;
8825;SDS011;4449;50.872;4.714;2022-07-29T02:27:13;2.33;;;2.17;;
8825;SDS011;4449;50.872;4.714;2022-07-29T02:29:41;2.45;;;1.80;;
8825;SDS011;4449;50.872;4.714;2022-07-29T02:32:09;2.07;;;1.97;;
8825;SDS011;4449;50.872;4.714;2022-07-29T02:34:39;2.17;;;2.00;;
8825;SDS011;4449;50.872;4.714;2022-07-29T02:37:07;3.75;;;2.10;;
8825;SDS011;4449;50.872;4.714;2022-07-29T02:39:36;3.15;;;2.30;;
8825;SDS011;4449;50.872;4.714;2022-07-29T02:42:05;2.65;;;2.45;;
8825;SDS011;4449;50.872;4.714;2022-07-29T02:44:34;3.13;;;2.38;;
8825;SDS011;4449;50.872;4.714;2022-07-29T02:47:04;3.13;;;2.30;;
8825;SDS011;4449;50.872;4.714;2022-07-29T02:49:35;2.30;;;2.20;;
8825;SDS011;4449;50.872;4.714;2022-07-29T02:52:06;2.40;;;2.20;;
8825;SDS011;4449;50.872;4.714;2022-07-29T02:54:38;2.95;;;2.20;;
8825;SDS011;4449;50.872;4.714;2022-07-29T02:57:09;2.13;;;2.00;;
8825;SDS011;4449;50.872;4.714;2022-07-29T02:59:38;2.30;;;2.10;;
8825;SDS011;4449;50.872;4.714;2022-07-29T03:02:07;3.35;;;2.50;;
8825;SDS011;4449;50.872;4.714;2022-07-29T03:04:36;2.90;;;2.17;;
8825;SDS011;4449;50.872;4.714;2022-07-29T03:07:06;3.15;;;2.47;;
8825;SDS011;4449;50.872;4.714;2022-07-29T03:09:34;3.58;;;2.20;;
8825;SDS011;4449;50.872;4.714;2022-07-29T03:12:03;2.33;;;2.10;;
8825;SDS011;4449;50.872;4.714;2022-07-29T03:14:31;2.40;;;2.20;;
8825;SDS011;4449;50.872;4.714;2022-07-29T03:16:59;3.33;;;2.28;;
8825;SDS011;4449;50.872;4.714;2022-07-29T03:19:27;2.50;;;2.30;;
8825;SDS011;4449;50.872;4.714;2022-07-29T03:21:56;2.50;;;2.33;;
8825;SDS011;4449;50.872;4.714;2022-07-29T03:24:26;2.55;;;2.15;;
8825;SDS011;4449;50.872;4.714;2022-07-29T03:26:54;2.88;;;2.28;;
8825;SDS011;4449;50.872;4.714;2022-07-29T03:29:22;3.22;;;2.40;;
8825;SDS011;4449;50.872;4.714;2022-07-29T03:31:50;2.85;;;2.60;;
8825;SDS011;4449;50.872;4.714;2022-07-29T03:34:18;3.33;;;2.55;;
8825;SDS011;4449;50.872;4.714;2022-07-29T03:36:46;2.55;;;2.40;;
8825;SDS011;4449;50.872;4.714;2022-07-29T03:39:14;2.97;;;2.30;;
8825;SDS011;4449;50.872;4.714;2022-07-29T03:41:44;3.30;;;2.35;;
8825;SDS011;4449;50.872;4.714;2022-07-29T03:44:13;3.78;;;2.20;;
8825;SDS011;4449;50.872;4.714;2022-07-29T03:46:42;2.50;;;2.08;;
8825;SDS011;4449;50.872;4.714;2022-07-29T03:49:10;2.60;;;2.13;;
8825;SDS011;4449;50.872;4.714;2022-07-29T03:51:38;2.70;;;2.25;;
8825;SDS011;4449;50.872;4.714;2022-07-29T03:54:06;3.28;;;2.08;;
8825;SDS011;4449;50.872;4.714;2022-07-29T03:56:36;2.25;;;2.05;;
8825;SDS011;4449;50.872;4.714;2022-07-29T03:59:06;3.88;;;2.20;;
8825;SDS011;4449;50.872;4.714;2022-07-29T04:01:34;2.70;;;2.50;;
8825;SDS011;4449;50.872;4.714;2022-07-29T04:04:02;4.05;;;2.22;;
8825;SDS011;4449;50.872;4.714;2022-07-29T04:06:37;1.90;;;1.80;;
8825;SDS011;4449;50.872;4.714;2022-07-29T04:09:04;3.65;;;2.13;;
8825;SDS011;4449;50.872;4.714;2022-07-29T04:11:32;2.20;;;2.10;;
8825;SDS011;4449;50.872;4.714;2022-07-29T04:14:00;2.75;;;2.10;;
8825;SDS011;4449;50.872;4.714;2022-07-29T04:16:29;2.83;;;2.30;;
8825;SDS011;4449;50.872;4.714;2022-07-29T04:18:57;2.45;;;2.25;;
8825;SDS011;4449;50.872;4.714;2022-07-29T04:21:24;2.38;;;2.22;;
8825;SDS011;4449;50.872;4.714;2022-07-29T04:23:52;2.80;;;2.28;;
8825;SDS011;4449;50.872;4.714;2022-07-29T04:26:20;4.32;;;2.28;;
8825;SDS011;4449;50.872;4.714;2022-07-29T04:28:48;4.57;;;2.35;;
8825;SDS011;4449;50.872;4.714;2022-07-29T04:31:15;3.53;;;2.72;;
8825;SDS011;4449;50.872;4.714;2022-07-29T04:33:44;2.40;;;2.13;;
8825;SDS011;4449;50.872;4.714;2022-07-29T04:36:12;2.40;;;2.15;;
8825;SDS011;4449;50.872;4.714;2022-07-29T04:38:40;2.80;;;2.40;;
8825;SDS011;4449;50.872;4.714;2022-07-29T04:41:08;4.00;;;2.20;;
8825;SDS011;4449;50.872;4.714;2022-07-29T04:43:39;5.20;;;3.80;;
8825;SDS011;4449;50.872;4.714;2022-07-29T04:46:06;2.78;;;2.55;;
8825;SDS011;4449;50.872;4.714;2022-07-29T04:48:34;2.63;;;2.42;;
8825;SDS011;4449;50.872;4.714;2022-07-29T04:51:03;3.17;;;2.58;;
8825;SDS011;4449;50.872;4.714;2022-07-29T04:53:31;4.65;;;2.53;;
8825;SDS011;4449;50.872;4.714;2022-07-29T04:55:59;2.40;;;2.30;;
8825;SDS011;4449;50.872;4.714;2022-07-29T04:58:27;3.50;;;2.27;;
8825;SDS011;4449;50.872;4.714;2022-07-29T05:00:54;3.67;;;3.05;;
8825;SDS011;4449;50.872;4.714;2022-07-29T05:03:22;3.80;;;2.40;;
8825;SDS011;4449;50.872;4.714;2022-07-29T05:05:50;2.45;;;2.20;;
8825;SDS011;4449;50.872;4.714;2022-07-29T05:08:19;2.37;;;2.27;;
8825;SDS011;4449;50.872;4.714;2022-07-29T05:10:47;3.50;;;2.60;;
8825;SDS011;4449;50.872;4.714;2022-07-29T05:13:14;4.53;;;2.90;;
8825;SDS011;4449;50.872;4.714;2022-07-29T05:15:42;3.33;;;2.55;;
8825;SDS011;4449;50.872;4.714;2022-07-29T05:18:10;2.90;;;2.70;;
8825;SDS011;4449;50.872;4.714;2022-07-29T05:20:38;2.80;;;2.70;;
8825;SDS011;4449;50.872;4.714;2022-07-29T05:23:06;2.72;;;2.53;;
8825;SDS011;4449;50.872;4.714;2022-07-29T05:25:35;3.72;;;2.95;;
8825;SDS011;4449;50.872;4.714;2022-07-29T05:28:03;2.42;;;2.22;;
8825;SDS011;4449;50.872;4.714;2022-07-29T05:30:31;3.22;;;2.88;;
8825;SDS011;4449;50.872;4.714;2022-07-29T05:32:58;2.70;;;2.50;;
8825;SDS011;4449;50.872;4.714;2022-07-29T05:35:26;3.33;;;3.03;;
8825;SDS011;4449;50.872;4.714;2022-07-29T05:37:54;3.35;;;3.03;;
8825;SDS011;4449;50.872;4.714;2022-07-29T05:40:22;3.88;;;2.83;;
8825;SDS011;4449;50.872;4.714;2022-07-29T05:42:51;3.67;;;3.38;;
8825;SDS011;4449;50.872;4.714;2022-07-29T05:45:19;3.35;;;3.05;;
8825;SDS011;4449;50.872;4.714;2022-07-29T05:47:47;3.08;;;2.88;;
8825;SDS011;4449;50.872;4.714;2022-07-29T05:50:14;3.50;;;3.20;;
8825;SDS011;4449;50.872;4.714;2022-07-29T05:52:42;3.83;;;3.30;;
8825;SDS011;4449;50.872;4.714;2022-07-29T05:55:10;3.28;;;2.97;;
8825;SDS011;4449;50.872;4.714;2022-07-29T05:57:38;3.47;;;3.17;;
8825;SDS011;4449;50.872;4.714;2022-07-29T06:00:08;6.33;;;3.30;;
8825;SDS011;4449;50.872;4.714;2022-07-29T06:02:36;3.10;;;2.95;;
8825;SDS011;4449;50.872;4.714;2022-07-29T06:05:04;3.28;;;3.08;;
8825;SDS011;4449;50.872;4.714;2022-07-29T06:07:32;5.07;;;3.20;;
8825;SDS011;4449;50.872;4.714;2022-07-29T06:10:00;4.05;;;3.15;;
8825;SDS011;4449;50.872;4.714;2022-07-29T06:12:28;3.60;;;3.40;;
8825;SDS011;4449;50.872;4.714;2022-07-29T06:14:56;3.50;;;3.30;;
8825;SDS011;4449;50.872;4.714;2022-07-29T06:17:25;3.77;;;3.47;;
8825;SDS011;4449;50.872;4.714;2022-07-29T06:19:52;4.87;;;3.47;;
8825;SDS011;4449;50.872;4.714;2022-07-29T06:22:20;3.77;;;3.30;;
8825;SDS011;4449;50.872;4.714;2022-07-29T06:24:50;3.58;;;3.20;;
8825;SDS011;4449;50.872;4.714;2022-07-29T06:27:18;3.92;;;3.30;;
8825;SDS011;4449;50.872;4.714;2022-07-29T06:29:45;6.13;;;3.67;;
8825;SDS011;4449;50.872;4.714;2022-07-29T06:32:13;3.90;;;3.50;;
8825;SDS011;4449;50.872;4.714;2022-07-29T06:34:42;3.85;;;3.53;;
8825;SDS011;4449;50.872;4.714;2022-07-29T06:37:10;5.23;;;3.57;;
8825;SDS011;4449;50.872;4.714;2022-07-29T06:39:38;4.80;;;3.80;;
8825;SDS011;4449;50.872;4.714;2022-07-29T06:42:06;5.53;;;3.70;;
8825;SDS011;4449;50.872;4.714;2022-07-29T06:44:34;6.50;;;4.22;;
8825;SDS011;4449;50.872;4.714;2022-07-29T06:47:02;4.32;;;3.65;;
8825;SDS011;4449;50.872;4.714;2022-07-29T06:49:29;3.73;;;3.47;;
8825;SDS011;4449;50.872;4.714;2022-07-29T06:51:59;3.80;;;3.50;;
8825;SDS011;4449;50.872;4.714;2022-07-29T06:54:27;3.80;;;3.50;;
8825;SDS011;4449;50.872;4.714;2022-07-29T06:56:55;5.28;;;3.60;;
8825;SDS011;4449;50.872;4.714;2022-07-29T06:59:22;3.67;;;3.38;;
8825;SDS011;4449;50.872;4.714;2022-07-29T07:01:50;5.18;;;3.40;;
8825;SDS011;4449;50.872;4.714;2022-07-29T07:04:18;4.05;;;3.50;;
8825;SDS011;4449;50.872;4.714;2022-07-29T07:06:46;4.13;;;3.40;;
8825;SDS011;4449;50.872;4.714;2022-07-29T07:09:15;4.07;;;3.70;;
8825;SDS011;4449;50.872;4.714;2022-07-29T07:11:43;4.15;;;3.58;;
8825;SDS011;4449;50.872;4.714;2022-07-29T07:14:10;6.60;;;4.13;;
8825;SDS011;4449;50.872;4.714;2022-07-29T07:16:38;3.70;;;3.25;;
8825;SDS011;4449;50.872;4.714;2022-07-29T07:19:06;3.70;;;3.20;;
8825;SDS011;4449;50.872;4.714;2022-07-29T07:21:34;4.03;;;3.70;;
8825;SDS011;4449;50.872;4.714;2022-07-29T07:24:02;3.75;;;3.55;;
8825;SDS011;4449;50.872;4.714;2022-07-29T07:26:31;4.40;;;4.00;;
8825;SDS011;4449;50.872;4.714;2022-07-29T07:28:58;4.35;;;4.00;;
8825;SDS011;4449;50.872;4.714;2022-07-29T07:31:26;3.70;;;3.40;;
8825;SDS011;4449;50.872;4.714;2022-07-29T07:33:53;4.40;;;3.50;;
8825;SDS011;4449;50.872;4.714;2022-07-29T07:36:21;3.60;;;3.33;;
8825;SDS011;4449;50.872;4.714;2022-07-29T07:38:49;4.00;;;3.70;;
8825;SDS011;4449;50.872;4.714;2022-07-29T07:41:17;3.42;;;3.13;;
8825;SDS011;4449;50.872;4.714;2022-07-29T07:43:46;4.00;;;3.60;;
8825;SDS011;4449;50.872;4.714;2022-07-29T07:46:14;4.55;;;3.50;;
8825;SDS011;4449;50.872;4.714;2022-07-29T07:48:42;4.07;;;3.67;;
8825;SDS011;4449;50.872;4.714;2022-07-29T07:51:09;6.75;;;3.50;;
8825;SDS011;4449;50.872;4.714;2022-07-29T07:53:37;3.90;;;3.60;;
8825;SDS011;4449;50.872;4.714;2022-07-29T07:56:05;3.95;;;3.70;;
8825;SDS011;4449;50.872;4.714;2022-07-29T07:58:33;3.88;;;3.60;;
8825;SDS011;4449;50.872;4.714;2022-07-29T08:01:03;3.63;;;3.30;;
8825;SDS011;4449;50.872;4.714;2022-07-29T08:03:31;15.32;;;3.85;;
8825;SDS011;4449;50.872;4.714;2022-07-29T08:06:00;9.10;;;3.63;;
8825;SDS011;4449;50.872;4.714;2022-07-29T08:08:27;4.22;;;3.20;;
8825;SDS011;4449;50.872;4.714;2022-07-29T08:10:55;3.47;;;3.22;;
8825;SDS011;4449;50.872;4.714;2022-07-29T08:13:24;3.88;;;3.50;;
8825;SDS011;4449;50.872;4.714;2022-07-29T08:15:53;3.47;;;3.28;;
8825;SDS011;4449;50.872;4.714;2022-07-29T08:18:27;4.70;;;3.95;;
8825;SDS011;4449;50.872;4.714;2022-07-29T08:20:55;4.30;;;3.60;;
8825;SDS011;4449;50.872;4.714;2022-07-29T08:23:23;4.13;;;3.10;;
8825;SDS011;4449;50.872;4.714;2022-07-29T08:25:52;4.07;;;3.35;;
8825;SDS011;4449;50.872;4.714;2022-07-29T08:28:20;3.45;;;3.25;;
8825;SDS011;4449;50.872;4.714;2022-07-29T08:30:48;3.33;;;3.03;;
8825;SDS011;4449;50.872;4.714;2022-07-29T08:33:15;5.30;;;3.42;;
8825;SDS011;4449;50.872;4.714;2022-07-29T08:35:44;4.97;;;3.35;;
8825;SDS011;4449;50.872;4.714;2022-07-29T08:38:12;4.37;;;3.57;;
8825;SDS011;4449;50.872;4.714;2022-07-29T08:40:40;3.88;;;3.10;;
8825;SDS011;4449;50.872;4.714;2022-07-29T08:43:08;7.43;;;3.90;;
8825;SDS011;4449;50.872;4.714;2022-07-29T08:45:43;4.43;;;4.13;;
8825;SDS011;4449;50.872;4.714;2022-07-29T08:48:11;2.92;;;2.80;;
8825;SDS011;4449;50.872;4.714;2022-07-29T08:50:39;6.20;;;5.60;;
8825;SDS011;4449;50.872;4.714;2022-07-29T08:53:11;3.53;;;3.10;;
8825;SDS011;4449;50.872;4.714;2022-07-29T08:55:39;3.50;;;3.20;;
8825;SDS011;4449;50.872;4.714;2022-07-29T08:58:07;3.70;;;3.38;;
8825;SDS011;4449;50.872;4.714;2022-07-29T09:00:36;4.40;;;2.80;;
8825;SDS011;4449;50.872;4.714;2022-07-29T09:03:05;3.67;;;3.28;;
8825;SDS011;4449;50.872;4.714;2022-07-29T09:05:33;2.95;;;2.75;;
8825;SDS011;4449;50.872;4.714;2022-07-29T09:08:01;4.57;;;2.90;;
8825;SDS011;4449;50.872;4.714;2022-07-29T09:10:31;4.40;;;3.10;;
8825;SDS011;4449;50.872;4.714;2022-07-29T09:12:58;3.33;;;2.35;;
8825;SDS011;4449;50.872;4.714;2022-07-29T09:15:26;2.88;;;2.58;;
8825;SDS011;4449;50.872;4.714;2022-07-29T09:17:54;2.55;;;2.35;;
8825;SDS011;4449;50.872;4.714;2022-07-29T09:20:23;2.58;;;2.20;;
8825;SDS011;4449;50.872;4.714;2022-07-29T09:22:51;2.38;;;2.28;;
8825;SDS011;4449;50.872;4.714;2022-07-29T09:25:33;2.80;;;2.40;;
8825;SDS011;4449;50.872;4.714;2022-07-29T09:28:07;2.47;;;2.35;;
8825;SDS011;4449;50.872;4.714;2022-07-29T09:30:35;3.33;;;2.38;;
8825;SDS011;4449;50.872;4.714;2022-07-29T09:33:03;2.30;;;2.20;;
8825;SDS011;4449;50.872;4.714;2022-07-29T09:35:31;2.60;;;2.40;;
8825;SDS011;4449;50.872;4.714;2022-07-29T09:38:09;12.38;;;3.25;;
8825;SDS011;4449;50.872;4.714;2022-07-29T09:40:38;4.10;;;3.55;;
8825;SDS011;4449;50.872;4.714;2022-07-29T09:43:09;2.55;;;2.35;;
8825;SDS011;4449;50.872;4.714;2022-07-29T09:45:37;2.60;;;2.40;;
8825;SDS011;4449;50.872;4.714;2022-07-29T09:48:13;2.78;;;2.50;;
8825;SDS011;4449;50.872;4.714;2022-07-29T09:50:41;2.20;;;2.10;;
8825;SDS011;4449;50.872;4.714;2022-07-29T09:53:09;2.20;;;2.00;;
8825;SDS011;4449;50.872;4.714;2022-07-29T09:55:48;2.35;;;2.20;;
8825;SDS011;4449;50.872;4.714;2022-07-29T09:58:17;3.65;;;2.00;;
8825;SDS011;4449;50.872;4.714;2022-07-29T10:00:45;2.67;;;1.85;;
8825;SDS011;4449;50.872;4.714;2022-07-29T10:03:14;2.05;;;1.95;;
8825;SDS011;4449;50.872;4.714;2022-07-29T10:05:42;2.43;;;1.80;;
8825;SDS011;4449;50.872;4.714;2022-07-29T10:08:10;2.03;;;1.90;;
8825;SDS011;4449;50.872;4.714;2022-07-29T10:10:39;2.20;;;2.00;;
8825;SDS011;4449;50.872;4.714;2022-07-29T10:13:09;3.33;;;2.07;;
8825;SDS011;4449;50.872;4.714;2022-07-29T10:15:37;2.50;;;2.20;;
8825;SDS011;4449;50.872;4.714;2022-07-29T10:18:06;2.38;;;2.15;;
8825;SDS011;4449;50.872;4.714;2022-07-29T10:20:34;2.85;;;1.85;;
8825;SDS011;4449;50.872;4.714;2022-07-29T10:23:01;2.85;;;2.45;;
8825;SDS011;4449;50.872;4.714;2022-07-29T10:25:29;2.00;;;1.90;;
8825;SDS011;4449;50.872;4.714;2022-07-29T10:27:57;1.97;;;1.87;;
8825;SDS011;4449;50.872;4.714;2022-07-29T10:30:27;2.05;;;1.88;;
8825;SDS011;4449;50.872;4.714;2022-07-29T10:32:57;2.70;;;2.22;;
8825;SDS011;4449;50.872;4.714;2022-07-29T10:38:31;1.90;;;1.80;;
8825;SDS011;4449;50.872;4.714;2022-07-29T10:41:06;2.90;;;2.40;;
8825;SDS011;4449;50.872;4.714;2022-07-29T10:43:54;3.33;;;1.90;;
8825;SDS011;4449;50.872;4.714;2022-07-29T10:46:24;4.10;;;1.77;;
8825;SDS011;4449;50.872;4.714;2022-07-29T10:49:05;3.08;;;1.70;;
8825;SDS011;4449;50.872;4.714;2022-07-29T11:51:10;2.53;;;2.00;;
8825;SDS011;4449;50.872;4.714;2022-07-29T11:53:38;2.30;;;2.10;;
8825;SDS011;4449;50.872;4.714;2022-07-29T11:56:07;2.58;;;2.30;;
8825;SDS011;4449;50.872;4.714;2022-07-29T11:58:35;2.27;;;2.07;;
8825;SDS011;4449;50.872;4.714;2022-07-29T12:01:04;2.30;;;2.10;;
8825;SDS011;4449;50.872;4.714;2022-07-29T12:03:31;2.10;;;2.00;;
8825;SDS011;4449;50.872;4.714;2022-07-29T12:06:00;2.60;;;2.40;;
8825;SDS011;4449;50.872;4.714;2022-07-29T12:08:29;2.23;;;2.03;;
8825;SDS011;4449;50.872;4.714;2022-07-29T12:10:57;3.13;;;2.38;;
8825;SDS011;4449;50.872;4.714;2022-07-29T12:13:25;2.20;;;2.00;;
8825;SDS011;4449;50.872;4.714;2022-07-29T12:16:05;2.40;;;2.30;;
8825;SDS011;4449;50.872;4.714;2022-07-29T12:18:33;2.38;;;2.22;;
8825;SDS011;4449;50.872;4.714;2022-07-29T12:21:01;2.20;;;2.00;;
8825;SDS011;4449;50.872;4.714;2022-07-29T12:23:31;2.67;;;2.35;;
8825;SDS011;4449;50.872;4.714;2022-07-29T12:25:59;3.50;;;2.10;;
8825;SDS011;4449;50.872;4.714;2022-07-29T12:28:27;2.33;;;2.13;;
8825;SDS011;4449;50.872;4.714;2022-07-29T12:30:54;2.13;;;2.03;;
8825;SDS011;4449;50.872;4.714;2022-07-29T12:33:23;2.10;;;2.00;;
8825;SDS011;4449;50.872;4.714;2022-07-29T12:35:52;2.30;;;2.10;;
8825;SDS011;4449;50.872;4.714;2022-07-29T12:38:21;2.63;;;2.43;;
8825;SDS011;4449;50.872;4.714;2022-07-29T12:40:51;2.72;;;2.42;;
8825;SDS011;4449;50.872;4.714;2022-07-29T12:43:19;2.22;;;1.90;;
8825;SDS011;4449;50.872;4.714;2022-07-29T12:45:48;3.53;;;2.35;;
8825;SDS011;4449;50.872;4.714;2022-07-29T12:48:16;7.15;;;2.70;;
8825;SDS011;4449;50.872;4.714;2022-07-29T12:50:54;2.90;;;2.00;;
8825;SDS011;4449;50.872;4.714;2022-07-29T12:53:22;2.40;;;2.20;;
8825;SDS011;4449;50.872;4.714;2022-07-29T12:55:52;3.60;;;2.25;;
8825;SDS011;4449;50.872;4.714;2022-07-29T12:58:32;3.15;;;1.88;;
8825;SDS011;4449;50.872;4.714;2022-07-29T13:01:01;3.53;;;1.85;;
8825;SDS011;4449;50.872;4.714;2022-07-29T13:03:45;2.63;;;2.00;;
8825;SDS011;4449;50.872;4.714;2022-07-29T13:06:29;2.92;;;2.30;;
8825;SDS011;4449;50.872;4.714;2022-07-29T13:09:02;2.20;;;2.00;;
8825;SDS011;4449;50.872;4.714;2022-07-29T13:11:32;3.97;;;2.60;;
8825;SDS011;4449;50.872;4.714;2022-07-29T13:14:00;2.15;;;2.00;;
8825;SDS011;4449;50.872;4.714;2022-07-29T13:16:28;2.00;;;1.90;;
8825;SDS011;4449;50.872;4.714;2022-07-29T13:19:06;4.93;;;2.28;;
8825;SDS011;4449;50.872;4.714;2022-07-29T13:21:34;2.20;;;2.10;;
8825;SDS011;4449;50.872;4.714;2022-07-29T13:24:02;3.90;;;2.25;;
8825;SDS011;4449;50.872;4.714;2022-07-29T13:26:32;2.83;;;2.15;;
8825;SDS011;4449;50.872;4.714;2022-07-29T13:29:00;2.10;;;2.00;;
8825;SDS011;4449;50.872;4.714;2022-07-29T13:31:28;2.75;;;1.92;;
8825;SDS011;4449;50.872;4.714;2022-07-29T13:33:55;3.47;;;2.42;;
8825;SDS011;4449;50.872;4.714;2022-07-29T13:36:23;3.35;;;2.15;;
8825;SDS011;4449;50.872;4.714;2022-07-29T13:38:52;3.10;;;2.22;;
8825;SDS011;4449;50.872;4.714;2022-07-29T13:41:19;2.60;;;2.40;;
8825;SDS011;4449;50.872;4.714;2022-07-29T13:43:49;2.05;;;1.90;;
8825;SDS011;4449;50.872;4.714;2022-07-29T13:46:16;3.10;;;2.25;;
8825;SDS011;4449;50.872;4.714;2022-07-29T13:48:44;2.70;;;2.20;;
8825;SDS011;4449;50.872;4.714;2022-07-29T13:51:12;3.33;;;2.00;;
8825;SDS011;4449;50.872;4.714;2022-07-29T13:53:39;2.58;;;1.98;;
8825;SDS011;4449;50.872;4.714;2022-07-29T13:56:07;2.60;;;2.40;;
8825;SDS011;4449;50.872;4.714;2022-07-29T13:58:35;2.50;;;2.30;;
8825;SDS011;4449;50.872;4.714;2022-07-29T14:01:04;2.63;;;2.40;;
8825;SDS011;4449;50.872;4.714;2022-07-29T14:03:32;2.85;;;2.55;;
8825;SDS011;4449;50.872;4.714;2022-07-29T14:06:00;2.13;;;1.90;;
8825;SDS011;4449;50.872;4.714;2022-07-29T14:08:27;2.67;;;2.27;;
8825;SDS011;4449;50.872;4.714;2022-07-29T14:10:55;6.45;;;2.30;;
8825;SDS011;4449;50.872;4.714;2022-07-29T14:13:23;3.40;;;2.38;;
8825;SDS011;4449;50.872;4.714;2022-07-29T14:15:51;2.88;;;2.63;;
8825;SDS011;4449;50.872;4.714;2022-07-29T14:18:20;3.30;;;2.27;;
8825;SDS011;4449;50.872;4.714;2022-07-29T14:20:48;4.72;;;2.58;;
8825;SDS011;4449;50.872;4.714;2022-07-29T14:23:16;4.30;;;2.85;;
8825;SDS011;4449;50.872;4.714;2022-07-29T14:25:44;2.83;;;2.60;;
8825;SDS011;4449;50.872;4.714;2022-07-29T14:28:11;3.38;;;3.15;;
8825;SDS011;4449;50.872;4.714;2022-07-29T14:30:39;3.28;;;3.08;;
8825;SDS011;4449;50.872;4.714;2022-07-29T14:33:07;3.88;;;3.22;;
8825;SDS011;4449;50.872;4.714;2022-07-29T14:35:36;3.90;;;3.42;;
8825;SDS011;4449;50.872;4.714;2022-07-29T14:38:04;4.57;;;3.50;;
8825;SDS011;4449;50.872;4.714;2022-07-29T14:40:32;3.65;;;3.38;;
8825;SDS011;4449;50.872;4.714;2022-07-29T14:42:59;3.75;;;3.45;;
8825;SDS011;4449;50.872;4.714;2022-07-29T14:45:28;4.57;;;3.65;;
8825;SDS011;4449;50.872;4.714;2022-07-29T14:47:56;4.22;;;3.72;;
8825;SDS011;4449;50.872;4.714;2022-07-29T14:50:28;4.00;;;3.80;;
8825;SDS011;4449;50.872;4.714;2022-07-29T14:52:57;10.77;;;5.78;;
8825;SDS011;4449;50.872;4.714;2022-07-29T14:55:24;4.43;;;3.97;;
8825;SDS011;4449;50.872;4.714;2022-07-29T14:57:52;3.97;;;3.67;;
8825;SDS011;4449;50.872;4.714;2022-07-29T15:00:20;3.95;;;3.25;;
8825;SDS011;4449;50.872;4.714;2022-07-29T15:02:48;3.43;;;3.13;;
8825;SDS011;4449;50.872;4.714;2022-07-29T15:05:16;4.90;;;3.45;;
8825;SDS011;4449;50.872;4.714;2022-07-29T15:07:43;3.55;;;3.00;;
8825;SDS011;4449;50.872;4.714;2022-07-29T15:10:12;5.40;;;2.92;;
8825;SDS011;4449;50.872;4.714;2022-07-29T15:12:40;3.15;;;2.90;;
8825;SDS011;4449;50.872;4.714;2022-07-29T15:15:08;3.58;;;2.63;;
8825;SDS011;4449;50.872;4.714;2022-07-29T15:17:36;2.92;;;2.78;;
8825;SDS011;4449;50.872;4.714;2022-07-29T15:20:04;2.95;;;2.75;;
8825;SDS011;4449;50.872;4.714;2022-07-29T15:22:32;3.45;;;3.15;;
8825;SDS011;4449;50.872;4.714;2022-07-29T15:24:59;3.50;;;3.20;;
8825;SDS011;4449;50.872;4.714;2022-07-29T15:27:29;3.45;;;3.20;;
8825;SDS011;4449;50.872;4.714;2022-07-29T15:29:56;4.97;;;2.80;;
8825;SDS011;4449;50.872;4.714;2022-07-29T15:32:24;4.15;;;3.60;;
8825;SDS011;4449;50.872;4.714;2022-07-29T15:34:52;2.88;;;2.67;;
8825;SDS011;4449;50.872;4.714;2022-07-29T15:37:20;3.15;;;2.78;;
8825;SDS011;4449;50.872;4.714;2022-07-29T15:39:47;3.20;;;2.90;;
8825;SDS011;4449;50.872;4.714;2022-07-29T15:42:15;3.33;;;2.58;;
8825;SDS011;4449;50.872;4.714;2022-07-29T15:44:44;2.50;;;2.40;;
8825;SDS011;4449;50.872;4.714;2022-07-29T15:47:12;2.53;;;2.33;;
8825;SDS011;4449;50.872;4.714;2022-07-29T15:49:40;2.65;;;2.50;;
8825;SDS011;4449;50.872;4.714;2022-07-29T15:52:08;2.80;;;2.60;;
8825;SDS011;4449;50.872;4.714;2022-07-29T15:54:36;2.58;;;2.38;;
8825;SDS011;4449;50.872;4.714;2022-07-29T15:57:05;2.60;;;2.40;;
8825;SDS011;4449;50.872;4.714;2022-07-29T15:59:33;2.65;;;2.55;;
8825;SDS011;4449;50.872;4.714;2022-07-29T16:02:03;3.78;;;2.53;;
8825;SDS011;4449;50.872;4.714;2022-07-29T16:04:30;2.40;;;2.30;;
8825;SDS011;4449;50.872;4.714;2022-07-29T16:06:58;2.88;;;2.53;;
8825;SDS011;4449;50.872;4.714;2022-07-29T16:09:26;3.88;;;2.38;;
8825;SDS011;4449;50.872;4.714;2022-07-29T16:11:54;2.80;;;2.60;;
8825;SDS011;4449;50.872;4.714;2022-07-29T16:14:22;5.85;;;2.40;;
8825;SDS011;4449;50.872;4.714;2022-07-29T16:16:49;2.72;;;2.53;;
8825;SDS011;4449;50.872;4.714;2022-07-29T16:19:19;3.17;;;2.35;;
8825;SDS011;4449;50.872;4.714;2022-07-29T16:21:47;4.75;;;2.42;;
8825;SDS011;4449;50.872;4.714;2022-07-29T16:24:14;3.40;;;2.50;;
8825;SDS011;4449;50.872;4.714;2022-07-29T16:26:42;2.80;;;2.47;;
8825;SDS011;4449;50.872;4.714;2022-07-29T16:29:10;2.35;;;2.20;;